createdAt,value
2022-09-30T00:00:56.582Z,102.45
2022-09-30T00:03:24.059Z,101.43
2022-09-30T00:06:07.878Z,102.82
2022-09-30T00:08:36.459Z,98.30
2022-09-30T00:11:16.396Z,100.60
2022-09-30T00:13:44.475Z,99.40
2022-09-30T00:16:12.311Z,100.03
2022-09-30T00:18:40.336Z,98.13
2022-09-30T00:21:08.264Z,99.68
2022-09-30T00:23:37.831Z,99.13
2022-09-30T00:26:07.825Z,97.90
2022-09-30T00:28:34.820Z,98.07
2022-09-30T00:31:07.822Z,110.53
2022-09-30T00:33:35.512Z,101.47
2022-09-30T00:36:02.833Z,98.30
2022-09-30T00:38:29.884Z,101.10
2022-09-30T00:40:56.808Z,98.65
2022-09-30T00:43:46.550Z,101.30
2022-09-30T00:46:20.496Z,99.53
2022-09-30T00:48:53.761Z,100.85
2022-09-30T00:51:32.641Z,98.70
2022-09-30T00:54:03.011Z,98.78
2022-09-30T00:56:34.357Z,100.07
2022-09-30T00:59:07.168Z,99.20
2022-09-30T01:01:35.512Z,98.40
2022-09-30T01:04:06.271Z,98.10
2022-09-30T01:06:33.261Z,101.50
2022-09-30T01:09:01.187Z,102.63
2022-09-30T01:11:29.172Z,98.80
2022-09-30T01:14:04.292Z,98.50
2022-09-30T01:16:45.972Z,98.57
2022-09-30T01:19:26.317Z,97.40
2022-09-30T01:22:10.871Z,99.55
2022-09-30T01:25:15.539Z,110.00
2022-09-30T01:28:03.646Z,98.93
2022-09-30T01:30:51.537Z,102.22
2022-09-30T01:33:26.715Z,99.63
2022-09-30T01:36:28.323Z,107.97
2022-09-30T01:39:03.862Z,97.85
2022-09-30T01:42:08.575Z,99.50
2022-09-30T01:45:03.537Z,104.05
2022-09-30T01:47:43.746Z,98.28
2022-09-30T01:50:20.037Z,98.97
2022-09-30T01:52:58.148Z,99.47
2022-09-30T01:55:31.476Z,102.75
2022-09-30T01:58:18.156Z,100.57
2022-09-30T02:00:50.056Z,102.03
2022-09-30T02:03:37.405Z,100.45
2022-09-30T02:06:12.236Z,109.15
2022-09-30T02:08:53.108Z,103.68
2022-09-30T02:11:29.091Z,101.13
2022-09-30T02:14:02.701Z,99.15
2022-09-30T02:16:40.049Z,105.93
2022-09-30T02:19:26.569Z,105.20
2022-09-30T02:21:58.467Z,103.75
2022-09-30T02:24:29.081Z,100.32
2022-09-30T02:26:59.429Z,101.22
2022-09-30T02:29:34.860Z,101.45
2022-09-30T02:32:09.307Z,101.15
2022-09-30T02:34:40.407Z,99.82
2022-09-30T02:37:19.301Z,100.38
2022-09-30T02:40:02.599Z,102.13
2022-09-30T02:42:31.358Z,103.82
2022-09-30T02:45:07.791Z,101.95
2022-09-30T02:47:46.422Z,99.82
2022-09-30T02:50:33.417Z,102.15
2022-09-30T02:53:21.530Z,101.85
2022-09-30T02:56:14.387Z,99.93
2022-09-30T02:58:43.274Z,103.55
2022-09-30T03:01:13.368Z,101.97
2022-09-30T03:03:48.237Z,105.25
2022-09-30T03:06:15.317Z,99.85
2022-09-30T03:08:42.525Z,101.15
2022-09-30T03:11:19.539Z,101.43
2022-09-30T03:14:10.428Z,101.28
2022-09-30T03:17:22.199Z,103.63
2022-09-30T03:19:57.826Z,101.80
2022-09-30T03:23:02.154Z,102.60
2022-09-30T03:25:37.860Z,101.97
2022-09-30T03:28:27.867Z,101.13
2022-09-30T03:31:21.977Z,100.97
2022-09-30T03:34:07.420Z,105.60
2022-09-30T03:36:55.031Z,103.03
2022-09-30T03:39:30.429Z,102.78
2022-09-30T03:42:09.373Z,100.65
2022-09-30T03:44:55.886Z,106.13
2022-09-30T03:47:25.049Z,101.25
2022-09-30T03:50:00.353Z,101.07
2022-09-30T03:52:30.155Z,100.63
2022-09-30T03:55:00.239Z,102.78
2022-09-30T03:57:29.371Z,105.07
2022-09-30T04:00:00.016Z,107.25
2022-09-30T04:02:27.556Z,103.78
2022-09-30T04:04:54.315Z,104.15
2022-09-30T04:07:21.013Z,101.40
2022-09-30T04:09:47.752Z,103.00
2022-09-30T04:12:14.475Z,101.68
2022-09-30T04:14:41.120Z,104.15
2022-09-30T04:17:07.863Z,101.65
2022-09-30T04:19:38.212Z,103.35
2022-09-30T04:22:04.836Z,104.60
2022-09-30T04:24:31.596Z,106.53
2022-09-30T04:26:58.317Z,100.53
2022-09-30T04:29:25.287Z,104.38
2022-09-30T04:31:51.973Z,101.93
2022-09-30T04:34:18.779Z,104.53
2022-09-30T04:36:45.474Z,101.75
2022-09-30T04:39:12.152Z,104.40
2022-09-30T04:41:39.119Z,103.05
2022-09-30T04:44:06.365Z,100.63
2022-09-30T04:46:36.566Z,105.53
2022-09-30T04:49:09.322Z,101.72
2022-09-30T04:51:37.145Z,102.22
2022-09-30T04:54:03.894Z,103.22
2022-09-30T04:56:30.665Z,113.90
2022-09-30T04:58:57.373Z,104.20
2022-09-30T05:03:54.510Z,103.68
2022-09-30T05:06:21.146Z,103.20
2022-09-30T05:08:48.025Z,103.13
2022-09-30T05:11:20.041Z,104.13
2022-09-30T05:13:47.717Z,101.30
2022-09-30T05:16:15.574Z,103.75
2022-09-30T05:18:45.576Z,104.05
2022-09-30T05:21:14.649Z,102.95
2022-09-30T05:23:41.317Z,106.63
2022-09-30T05:26:11.986Z,106.18
2022-09-30T05:28:40.123Z,104.45
2022-09-30T05:31:06.915Z,104.22
2022-09-30T05:33:34.837Z,104.72
2022-09-30T05:36:03.943Z,105.60
2022-09-30T05:38:30.725Z,108.40
2022-09-30T05:40:57.454Z,104.68
2022-09-30T05:43:24.219Z,104.57
2022-09-30T05:45:55.500Z,104.55
2022-09-30T05:48:23.356Z,103.93
2022-09-30T05:50:53.898Z,103.57
2022-09-30T05:53:20.617Z,107.88
2022-09-30T05:55:48.384Z,107.97
2022-09-30T05:58:16.158Z,105.05
2022-09-30T06:00:44.716Z,102.72
2022-09-30T06:03:11.569Z,108.97
2022-09-30T06:05:38.275Z,104.82
2022-09-30T06:08:07.135Z,105.88
2022-09-30T06:10:35.200Z,104.10
2022-09-30T06:13:05.127Z,105.30
2022-09-30T06:15:31.925Z,109.03
2022-09-30T06:17:58.608Z,104.53
2022-09-30T06:20:25.461Z,110.70
2022-09-30T06:22:52.299Z,106.90
2022-09-30T06:25:19.042Z,103.47
2022-09-30T06:27:47.055Z,103.38
2022-09-30T06:30:14.205Z,103.28
2022-09-30T06:32:40.938Z,103.65
2022-09-30T06:35:08.231Z,103.47
2022-09-30T06:37:37.206Z,102.72
2022-09-30T06:40:06.229Z,102.32
2022-09-30T06:42:33.086Z,101.85
2022-09-30T06:44:59.829Z,104.13
2022-09-30T06:47:26.878Z,104.38
2022-09-30T06:49:58.452Z,102.30
2022-09-30T06:52:26.305Z,103.75
2022-09-30T06:54:53.430Z,104.63
2022-09-30T06:57:22.594Z,103.75
2022-09-30T06:59:50.226Z,104.50
2022-09-30T07:02:17.215Z,104.55
2022-09-30T07:04:44.005Z,103.57
2022-09-30T07:07:10.849Z,103.03
2022-09-30T07:09:37.725Z,105.57
2022-09-30T07:12:06.353Z,106.15
2022-09-30T07:14:33.868Z,104.75
2022-09-30T07:17:04.051Z,110.40
2022-09-30T07:19:31.693Z,104.18
2022-09-30T07:22:18.298Z,108.97
2022-09-30T07:24:44.968Z,107.15
2022-09-30T07:27:13.510Z,125.22
2022-09-30T07:30:07.244Z,104.88
2022-09-30T07:32:28.381Z,111.60
2022-09-30T07:34:55.143Z,104.00
2022-09-30T07:37:24.053Z,104.13
2022-09-30T07:39:50.698Z,104.03
2022-09-30T07:42:23.002Z,103.57
2022-09-30T07:44:51.771Z,102.63
2022-09-30T07:47:18.961Z,101.90
2022-09-30T07:49:45.631Z,109.10
2022-09-30T07:52:13.082Z,102.32
2022-09-30T07:54:44.228Z,109.30
2022-09-30T07:57:13.857Z,102.22
2022-09-30T07:59:41.986Z,98.95
2022-09-30T08:02:16.376Z,98.97
2022-09-30T08:04:44.558Z,102.15
2022-09-30T08:07:14.137Z,97.25
2022-09-30T08:09:41.000Z,95.18
2022-09-30T08:12:07.779Z,96.05
2022-09-30T08:14:34.483Z,94.85
2022-09-30T08:17:01.367Z,93.28
2022-09-30T08:19:29.683Z,94.50
2022-09-30T08:21:56.661Z,92.72
2022-09-30T08:24:24.359Z,90.80
2022-09-30T08:26:51.662Z,92.72
2022-09-30T08:29:20.424Z,91.18
2022-09-30T08:31:56.817Z,91.82
2022-09-30T08:34:24.176Z,91.97
2022-09-30T08:36:50.871Z,90.18
2022-09-30T08:39:17.482Z,89.05
2022-09-30T08:42:36.094Z,91.00
2022-09-30T08:45:33.338Z,87.20
2022-09-30T08:50:51.867Z,88.80
2022-09-30T08:53:26.396Z,89.60
2022-09-30T08:55:57.117Z,83.80
2022-09-30T08:58:32.702Z,80.90
2022-09-30T09:01:23.166Z,79.90
2022-09-30T09:03:50.084Z,81.00
2022-09-30T09:06:44.507Z,79.03
2022-09-30T09:09:23.085Z,79.27
2022-09-30T09:11:59.214Z,78.60
2022-09-30T09:14:44.283Z,77.00
2022-09-30T09:17:36.908Z,80.20
2022-09-30T09:20:22.356Z,79.63
2022-09-30T09:22:51.496Z,78.50
2022-09-30T09:25:23.055Z,76.17
2022-09-30T09:27:52.734Z,79.77
2022-09-30T09:30:24.749Z,75.93
2022-09-30T09:32:57.305Z,75.47
2022-09-30T09:35:47.378Z,77.80
2022-09-30T09:38:41.727Z,77.50
2022-09-30T09:41:21.401Z,79.80
2022-09-30T09:43:49.131Z,78.43
2022-09-30T09:46:45.394Z,76.97
2022-09-30T09:49:20.608Z,78.50
2022-09-30T09:52:13.195Z,76.83
2022-09-30T09:54:41.464Z,75.67
2022-09-30T09:57:12.875Z,78.57
2022-09-30T09:59:56.122Z,77.20
2022-09-30T10:02:29.300Z,79.20
2022-09-30T10:05:03.634Z,76.47
2022-09-30T10:07:34.105Z,77.70
2022-09-30T10:10:19.613Z,78.40
2022-09-30T10:12:49.465Z,77.80
2022-09-30T10:15:22.397Z,75.70
2022-09-30T10:17:54.945Z,77.37
2022-09-30T10:20:31.276Z,78.33
2022-09-30T10:23:07.970Z,76.80
2022-09-30T10:25:34.797Z,78.07
2022-09-30T10:28:04.115Z,75.87
2022-09-30T10:30:30.816Z,77.90
2022-09-30T10:32:58.428Z,78.13
2022-09-30T10:35:26.065Z,75.83
2022-09-30T10:37:59.352Z,77.40
2022-09-30T10:40:29.522Z,77.60
2022-09-30T10:42:57.094Z,81.03
2022-09-30T10:45:31.957Z,76.27
2022-09-30T10:48:01.975Z,77.80
2022-09-30T10:50:28.649Z,77.97
2022-09-30T10:53:05.917Z,78.80
2022-09-30T10:55:42.357Z,78.70
2022-09-30T10:58:47.292Z,77.60
2022-09-30T11:01:23.121Z,79.97
2022-09-30T11:03:58.845Z,77.30
2022-09-30T11:06:28.308Z,78.87
2022-09-30T11:09:04.012Z,80.60
2022-09-30T11:12:01.511Z,83.07
2022-09-30T11:14:30.851Z,82.17
2022-09-30T11:17:11.262Z,80.03
2022-09-30T11:20:13.526Z,85.20
2022-09-30T11:22:58.610Z,85.10
2022-09-30T11:25:51.850Z,84.63
2022-09-30T11:28:34.422Z,79.77
2022-09-30T11:31:04.894Z,79.67
2022-09-30T11:34:12.917Z,80.50
2022-09-30T11:36:59.347Z,79.70
2022-09-30T11:39:43.958Z,80.30
2022-09-30T11:42:22.765Z,81.07
2022-09-30T11:45:04.618Z,81.57
2022-09-30T11:47:34.285Z,82.50
2022-09-30T11:50:06.888Z,83.27
2022-09-30T11:53:19.667Z,82.10
2022-09-30T11:55:52.455Z,84.10
2022-09-30T11:58:40.403Z,83.47
2022-09-30T12:01:21.726Z,83.30
2022-09-30T12:03:58.990Z,85.10
2022-09-30T12:06:40.660Z,88.97
2022-09-30T12:09:18.217Z,84.77
2022-09-30T12:11:49.738Z,86.03
2022-09-30T12:14:27.454Z,83.47
2022-09-30T12:16:56.726Z,85.80
2022-09-30T12:19:31.153Z,86.20
2022-09-30T12:22:16.209Z,86.50
2022-09-30T12:24:45.718Z,85.13
2022-09-30T12:27:27.367Z,86.05
2022-09-30T12:30:17.667Z,85.77
2022-09-30T12:33:27.291Z,88.67
2022-09-30T12:36:09.351Z,86.10
2022-09-30T12:38:53.152Z,88.73
2022-09-30T12:41:54.019Z,86.90
2022-09-30T12:44:48.518Z,87.57
2022-09-30T12:47:18.185Z,86.22
2022-09-30T12:49:46.850Z,85.60
2022-09-30T12:52:20.167Z,87.15
2022-09-30T12:54:58.575Z,86.23
2022-09-30T12:57:29.421Z,86.20
2022-09-30T13:00:13.571Z,86.00
2022-09-30T13:02:43.906Z,85.82
2022-09-30T13:05:32.483Z,85.00
2022-09-30T13:08:05.158Z,87.37
2022-09-30T13:10:37.641Z,88.82
2022-09-30T13:13:10.646Z,89.40
2022-09-30T13:15:37.275Z,87.47
2022-09-30T13:18:26.820Z,85.70
2022-09-30T13:21:05.389Z,87.95
2022-09-30T13:23:51.901Z,86.55
2022-09-30T13:26:27.995Z,87.57
2022-09-30T13:29:02.559Z,85.68
2022-09-30T13:31:53.025Z,88.10
2022-09-30T13:34:24.766Z,90.10
2022-09-30T13:36:51.325Z,87.87
2022-09-30T13:39:36.719Z,88.28
2022-09-30T13:42:35.534Z,89.65
2022-09-30T13:45:07.890Z,89.07
2022-09-30T13:47:39.765Z,89.15
2022-09-30T13:50:26.794Z,90.03
2022-09-30T13:52:58.061Z,87.03
2022-09-30T13:55:26.825Z,87.63
2022-09-30T13:57:53.412Z,89.78
2022-09-30T14:00:22.350Z,89.80
2022-09-30T14:03:07.877Z,88.72
2022-09-30T14:05:51.399Z,87.72
2022-09-30T14:08:50.751Z,89.60
2022-09-30T14:11:39.136Z,87.68
2022-09-30T14:14:22.573Z,89.75
2022-09-30T14:16:56.957Z,87.03
2022-09-30T14:19:47.310Z,87.93
2022-09-30T14:22:15.257Z,87.45
2022-09-30T14:24:42.222Z,87.97
2022-09-30T14:27:33.122Z,88.30
2022-09-30T14:30:11.666Z,86.72
2022-09-30T14:32:43.174Z,89.45
2022-09-30T14:35:18.805Z,88.10
2022-09-30T14:38:03.523Z,88.78
2022-09-30T14:40:33.038Z,87.43
2022-09-30T14:43:06.909Z,89.95
2022-09-30T14:45:37.787Z,89.60
2022-09-30T14:48:11.742Z,87.68
2022-09-30T14:51:04.144Z,91.00
2022-09-30T14:53:33.328Z,87.60
2022-09-30T14:56:01.797Z,87.93
2022-09-30T14:58:42.211Z,88.18
2022-09-30T15:01:15.293Z,88.15
2022-09-30T15:03:48.892Z,89.07
2022-09-30T15:06:28.243Z,89.22
2022-09-30T15:09:06.901Z,87.40
2022-09-30T15:11:38.796Z,90.43
2022-09-30T15:14:18.553Z,92.50
2022-09-30T15:16:48.261Z,88.72
2022-09-30T15:19:26.047Z,90.00
2022-09-30T15:21:55.910Z,90.68
2022-09-30T15:24:25.883Z,89.25
2022-09-30T15:26:53.529Z,90.13
2022-09-30T15:29:20.174Z,88.47
2022-09-30T15:31:54.466Z,91.15
2022-09-30T15:34:24.190Z,89.82
2022-09-30T15:37:04.373Z,92.20
2022-09-30T15:39:50.561Z,90.72
2022-09-30T15:42:35.098Z,90.22
2022-09-30T15:45:30.891Z,92.40
2022-09-30T15:48:02.558Z,90.32
2022-09-30T15:50:35.879Z,91.60
2022-09-30T15:53:24.922Z,90.43
2022-09-30T15:55:56.085Z,91.97
2022-09-30T15:58:39.763Z,92.07
2022-09-30T16:01:09.393Z,90.32
2022-09-30T16:03:36.927Z,93.20
2022-09-30T16:06:08.964Z,90.38
2022-09-30T16:08:44.217Z,91.82
2022-09-30T16:11:20.459Z,90.82
2022-09-30T16:13:48.220Z,90.80
2022-09-30T16:16:20.456Z,93.10
2022-09-30T16:18:48.444Z,91.03
2022-09-30T16:21:31.175Z,92.20
2022-09-30T16:23:58.647Z,91.82
2022-09-30T16:26:30.137Z,91.47
2022-09-30T16:29:01.682Z,91.55
2022-09-30T16:31:29.910Z,95.30
2022-09-30T16:33:56.567Z,92.82
2022-09-30T16:36:23.239Z,92.50
2022-09-30T16:38:49.860Z,92.45
2022-09-30T16:41:16.829Z,91.95
2022-09-30T16:43:43.912Z,91.93
2022-09-30T16:46:10.746Z,92.78
2022-09-30T16:48:39.689Z,92.10
2022-09-30T16:51:15.639Z,92.60
2022-09-30T16:53:42.663Z,95.47
2022-09-30T16:56:18.230Z,102.00
2022-09-30T16:58:46.359Z,96.85
2022-09-30T17:01:21.620Z,96.15
2022-09-30T17:03:48.622Z,106.70
2022-09-30T17:06:18.976Z,104.65
2022-09-30T17:08:45.722Z,104.93
2022-09-30T17:11:12.416Z,106.63
2022-09-30T17:13:39.127Z,100.35
2022-09-30T17:16:06.139Z,108.95
2022-09-30T17:18:32.914Z,103.20
2022-09-30T17:21:01.262Z,102.28
2022-09-30T17:23:27.942Z,100.35
2022-09-30T17:25:54.917Z,98.88
2022-09-30T17:28:22.115Z,95.80
2022-09-30T17:30:50.295Z,96.97
2022-09-30T17:33:19.618Z,98.32
2022-09-30T17:35:56.876Z,95.07
2022-09-30T17:38:23.481Z,95.75
2022-09-30T17:41:08.647Z,96.70
2022-09-30T17:43:35.274Z,96.40
2022-09-30T17:46:02.114Z,94.97
2022-09-30T17:48:28.899Z,96.90
2022-09-30T17:50:56.276Z,99.55
2022-09-30T17:53:23.659Z,100.88
2022-09-30T17:56:02.171Z,98.20
2022-09-30T17:58:29.103Z,101.03
2022-09-30T18:00:58.709Z,100.18
2022-09-30T18:03:26.336Z,101.20
2022-09-30T18:06:00.009Z,96.70
2022-09-30T18:08:28.092Z,95.95
2022-09-30T18:10:57.321Z,94.13
2022-09-30T18:13:33.077Z,96.43
2022-09-30T18:16:01.919Z,94.57
2022-09-30T18:18:29.389Z,95.30
2022-09-30T18:20:56.051Z,94.25
2022-09-30T18:23:22.731Z,99.90
2022-09-30T18:25:49.704Z,95.13
2022-09-30T18:28:16.845Z,100.03
2022-09-30T18:30:43.799Z,97.32
2022-09-30T18:33:10.963Z,97.75
2022-09-30T18:35:39.387Z,95.82
2022-09-30T18:38:06.873Z,96.38
2022-09-30T18:40:33.962Z,94.82
2022-09-30T18:43:05.269Z,98.43
2022-09-30T18:45:38.301Z,98.30
2022-09-30T18:48:07.295Z,97.07
2022-09-30T18:50:34.559Z,97.05
2022-09-30T18:53:09.102Z,97.30
2022-09-30T18:55:39.896Z,95.78
2022-09-30T18:58:06.583Z,99.68
2022-09-30T19:00:33.477Z,98.30
2022-09-30T19:03:00.256Z,102.05
2022-09-30T19:05:27.383Z,100.93
2022-09-30T19:07:54.745Z,97.10
2022-09-30T19:10:22.057Z,98.68
2022-09-30T19:12:49.613Z,98.38
2022-09-30T19:15:16.381Z,99.93
2022-09-30T19:17:44.630Z,112.65
2022-09-30T19:20:12.747Z,100.38
2022-09-30T19:22:39.446Z,100.47
2022-09-30T19:25:08.185Z,101.90
2022-09-30T19:27:38.415Z,104.70
2022-09-30T19:30:08.517Z,102.50
2022-09-30T19:32:35.751Z,100.25
2022-09-30T19:35:10.103Z,99.95
2022-09-30T19:37:37.223Z,98.57
2022-09-30T19:40:19.990Z,100.82
2022-09-30T19:42:49.482Z,102.97
2022-09-30T19:45:16.770Z,99.20
2022-09-30T19:47:43.918Z,99.88
2022-09-30T19:50:10.553Z,101.35
2022-09-30T19:52:45.502Z,98.80
2022-09-30T19:55:17.869Z,99.43
2022-09-30T19:57:44.576Z,103.97
2022-09-30T20:00:12.945Z,100.95
2022-09-30T20:02:39.834Z,105.05
2022-09-30T20:05:07.327Z,99.85
2022-09-30T20:07:35.073Z,100.82
2022-09-30T20:10:02.041Z,103.05
2022-09-30T20:12:29.219Z,104.00
2022-09-30T20:15:14.717Z,99.57
2022-09-30T20:17:41.485Z,103.65
2022-09-30T20:20:27.809Z,106.13
2022-09-30T20:22:54.504Z,101.22
2022-09-30T20:25:21.283Z,100.35
2022-09-30T20:27:52.195Z,101.43
2022-09-30T20:30:19.759Z,104.93
2022-09-30T20:32:46.737Z,102.45
2022-09-30T20:35:13.879Z,100.93
2022-09-30T20:37:41.890Z,99.57
2022-09-30T20:40:09.536Z,102.20
2022-09-30T20:42:38.215Z,101.68
2022-09-30T20:45:06.453Z,103.18
2022-09-30T20:47:33.150Z,102.55
2022-09-30T20:49:59.826Z,110.15
2022-09-30T20:52:26.841Z,103.22
2022-09-30T20:54:53.531Z,103.70
2022-09-30T20:57:20.183Z,106.50
2022-09-30T20:59:47.286Z,103.18
2022-09-30T21:02:14.361Z,99.88
2022-09-30T21:04:41.078Z,103.97
2022-09-30T21:07:07.709Z,101.45
2022-09-30T21:09:37.200Z,100.93
2022-09-30T21:12:03.965Z,105.28
2022-09-30T21:14:30.577Z,101.68
2022-09-30T21:16:57.251Z,102.13
2022-09-30T21:19:23.940Z,101.22
2022-09-30T21:21:50.594Z,103.13
2022-09-30T21:24:17.254Z,103.35
2022-09-30T21:26:43.907Z,105.68
2022-09-30T21:29:10.530Z,100.10
2022-09-30T21:31:38.157Z,101.40
2022-09-30T21:34:04.897Z,98.18
2022-09-30T21:36:32.128Z,106.25
2022-09-30T21:39:04.900Z,98.65
2022-09-30T21:41:33.385Z,100.97
2022-09-30T21:44:01.344Z,101.43
2022-09-30T21:46:29.511Z,98.90
2022-09-30T21:49:13.729Z,103.40
2022-09-30T21:51:40.709Z,99.65
2022-09-30T21:54:09.998Z,99.57
2022-09-30T21:56:37.008Z,98.00
2022-09-30T21:59:04.786Z,100.30
2022-09-30T22:01:32.347Z,101.10
2022-09-30T22:03:59.451Z,101.50
2022-09-30T22:06:26.126Z,102.63
2022-09-30T22:08:52.790Z,107.47
2022-09-30T22:11:23.759Z,98.95
2022-09-30T22:13:55.464Z,104.05
2022-09-30T22:16:23.850Z,100.95
2022-09-30T22:18:54.674Z,100.93
2022-09-30T22:21:21.626Z,103.00
2022-09-30T22:23:49.055Z,100.43
2022-09-30T22:26:21.138Z,102.15
2022-09-30T22:28:52.745Z,102.97
2022-09-30T22:31:21.651Z,99.80
2022-09-30T22:34:08.287Z,102.30
2022-09-30T22:36:54.322Z,101.13
2022-09-30T22:39:21.757Z,102.40
2022-09-30T22:41:55.390Z,101.43
2022-09-30T22:44:25.344Z,102.55
2022-09-30T22:46:53.402Z,99.45
2022-09-30T22:49:20.629Z,102.03
2022-09-30T22:51:51.863Z,110.13
2022-09-30T22:54:18.530Z,102.60
2022-09-30T22:56:45.715Z,101.80
2022-09-30T22:59:12.361Z,104.63
2022-09-30T23:01:39.000Z,103.13
2022-09-30T23:04:13.331Z,102.75
2022-09-30T23:06:40.039Z,107.43
2022-09-30T23:09:07.086Z,104.40
2022-09-30T23:11:35.576Z,106.35
2022-09-30T23:14:03.171Z,104.82
2022-09-30T23:16:30.187Z,102.15
2022-09-30T23:18:57.546Z,105.38
2022-09-30T23:21:25.554Z,104.07
2022-09-30T23:23:53.340Z,107.50
2022-09-30T23:26:25.109Z,105.82
2022-09-30T23:28:57.469Z,103.75
2022-09-30T23:31:24.164Z,102.95
2022-09-30T23:33:53.215Z,107.70
2022-09-30T23:36:29.395Z,106.53
2022-09-30T23:39:21.414Z,104.22
2022-09-30T23:41:49.016Z,103.90
2022-09-30T23:44:19.673Z,107.50
2022-09-30T23:47:07.815Z,104.05
2022-09-30T23:49:38.346Z,103.28
2022-09-30T23:52:09.169Z,105.05
2022-09-30T23:54:40.057Z,104.30
2022-09-30T23:57:08.103Z,104.90
2022-09-30T23:59:34.778Z,104.60
